createdAt,value
2024-05-09T00:01:22.540Z,587.00
2024-05-09T00:02:22.614Z,586.00
2024-05-09T00:03:22.615Z,584.00
2024-05-09T00:04:22.566Z,586.00
2024-05-09T00:05:22.674Z,586.00
2024-05-09T00:06:22.528Z,589.00
2024-05-09T00:07:22.543Z,590.00
2024-05-09T00:09:22.536Z,590.00
2024-05-09T00:10:29.147Z,592.00
2024-05-09T00:11:23.790Z,593.00
2024-05-09T00:12:22.624Z,590.00
2024-05-09T00:13:22.549Z,587.00
2024-05-09T00:14:22.683Z,588.00
2024-05-09T00:15:22.552Z,590.00
2024-05-09T00:16:22.549Z,592.00
2024-05-09T00:17:22.645Z,591.00
2024-05-09T00:18:22.703Z,591.00
2024-05-09T00:20:28.419Z,591.00
2024-05-09T00:21:23.573Z,591.00
2024-05-09T00:22:22.552Z,591.00
2024-05-09T00:23:22.595Z,594.00
2024-05-09T00:24:22.552Z,595.00
2024-05-09T00:25:22.600Z,596.00
2024-05-09T00:27:22.588Z,593.00
2024-05-09T00:28:22.613Z,592.00
2024-05-09T00:29:22.634Z,591.00
2024-05-09T00:30:31.083Z,589.00
2024-05-09T00:31:23.566Z,591.00
2024-05-09T00:32:22.654Z,590.00
2024-05-09T00:33:22.730Z,588.00
2024-05-09T00:34:22.667Z,587.00
2024-05-09T00:35:22.704Z,587.00
2024-05-09T00:36:22.573Z,586.00
2024-05-09T00:37:22.582Z,585.00
2024-05-09T00:38:22.618Z,583.00
2024-05-09T00:39:22.591Z,582.00
2024-05-09T00:40:30.965Z,582.00
2024-05-09T00:41:23.657Z,584.00
2024-05-09T00:42:22.628Z,583.00
2024-05-09T00:43:22.635Z,584.00
2024-05-09T00:44:22.819Z,585.00
2024-05-09T00:45:22.658Z,584.00
2024-05-09T00:46:22.620Z,584.00
2024-05-09T00:47:22.765Z,582.00
2024-05-09T00:48:22.825Z,581.00
2024-05-09T00:49:22.894Z,580.00
2024-05-09T00:50:29.601Z,581.00
2024-05-09T00:51:23.631Z,580.00
2024-05-09T00:52:22.623Z,578.00
2024-05-09T00:53:22.735Z,577.00
2024-05-09T00:54:22.635Z,578.00
2024-05-09T00:55:22.632Z,579.00
2024-05-09T00:56:22.715Z,579.00
2024-05-09T00:57:22.648Z,581.00
2024-05-09T00:58:22.644Z,582.00
2024-05-09T00:59:22.717Z,581.00
2024-05-09T01:00:31.094Z,581.00
2024-05-09T01:01:23.680Z,582.00
2024-05-09T01:02:22.790Z,583.00
2024-05-09T01:03:23.006Z,581.00
2024-05-09T01:04:22.681Z,584.00
2024-05-09T01:05:22.700Z,586.00
2024-05-09T01:06:22.687Z,586.00
2024-05-09T01:07:22.707Z,587.00
2024-05-09T01:08:22.715Z,585.00
2024-05-09T01:09:22.734Z,583.00
2024-05-09T01:10:28.183Z,583.00
2024-05-09T01:11:23.780Z,583.00
2024-05-09T01:12:22.804Z,582.00
2024-05-09T01:13:22.706Z,582.00
2024-05-09T01:14:22.766Z,581.00
2024-05-09T01:15:22.699Z,582.00
2024-05-09T01:16:22.691Z,581.00
2024-05-09T01:17:22.841Z,581.00
2024-05-09T01:18:22.851Z,580.00
2024-05-09T01:19:22.856Z,581.00
2024-05-09T01:21:22.815Z,579.00
2024-05-09T01:22:22.826Z,577.00
2024-05-09T01:23:22.918Z,577.00
2024-05-09T01:24:22.937Z,575.00
2024-05-09T01:25:22.988Z,575.00
2024-05-09T01:26:23.139Z,577.00
2024-05-09T01:27:23.112Z,577.00
2024-05-09T01:28:23.169Z,578.00
2024-05-09T01:29:23.330Z,576.00
2024-05-09T01:30:31.744Z,575.00
2024-05-09T01:31:24.279Z,575.00
2024-05-09T01:32:23.404Z,577.00
2024-05-09T01:33:23.548Z,578.00
2024-05-09T01:34:23.399Z,577.00
2024-05-09T01:35:23.422Z,578.00
2024-05-09T01:36:23.286Z,580.00
2024-05-09T01:37:23.283Z,580.00
2024-05-09T01:38:23.278Z,581.00
2024-05-09T01:39:23.280Z,581.00
2024-05-09T01:41:23.384Z,578.00
2024-05-09T01:42:23.470Z,580.00
2024-05-09T01:43:23.455Z,581.00
2024-05-09T01:44:23.598Z,579.00
2024-05-09T01:45:23.571Z,579.00
2024-05-09T01:46:23.639Z,581.00
2024-05-09T01:47:23.876Z,582.00
2024-05-09T01:48:23.907Z,581.00
2024-05-09T01:49:24.043Z,582.00
2024-05-09T01:50:35.747Z,583.00
2024-05-09T01:51:24.900Z,584.00
2024-05-09T01:52:23.873Z,582.00
2024-05-09T01:53:23.899Z,582.00
2024-05-09T01:54:23.880Z,580.00
2024-05-09T01:55:23.864Z,581.00
2024-05-09T01:56:23.933Z,581.00
2024-05-09T01:57:23.890Z,581.00
2024-05-09T01:58:23.874Z,580.00
2024-05-09T01:59:23.972Z,577.00
2024-05-09T02:00:33.812Z,576.00
2024-05-09T02:01:24.985Z,577.00
2024-05-09T02:02:23.993Z,574.00
2024-05-09T02:03:24.113Z,574.00
2024-05-09T02:04:24.025Z,572.00
2024-05-09T02:05:24.015Z,575.00
2024-05-09T02:06:23.905Z,575.00
2024-05-09T02:07:23.918Z,572.00
2024-05-09T02:08:23.955Z,571.00
2024-05-09T02:09:23.898Z,569.00
2024-05-09T02:10:31.697Z,569.00
2024-05-09T02:11:25.038Z,571.00
2024-05-09T02:12:24.033Z,573.00
2024-05-09T02:13:23.923Z,573.00
2024-05-09T02:14:24.072Z,575.00
2024-05-09T02:15:23.938Z,577.00
2024-05-09T02:16:23.961Z,577.00
2024-05-09T02:17:24.123Z,577.00
2024-05-09T02:18:24.046Z,577.00
2024-05-09T02:19:24.020Z,579.00
2024-05-09T02:20:33.069Z,578.00
2024-05-09T02:21:24.972Z,576.00
2024-05-09T02:22:23.948Z,577.00
2024-05-09T02:23:24.028Z,578.00
2024-05-09T02:24:23.988Z,579.00
2024-05-09T02:25:23.959Z,579.00
2024-05-09T02:26:23.987Z,579.00
2024-05-09T02:27:23.965Z,579.00
2024-05-09T02:28:23.974Z,578.00
2024-05-09T02:29:24.056Z,577.00
2024-05-09T02:30:30.910Z,578.00
2024-05-09T02:31:25.099Z,577.00
2024-05-09T02:32:24.287Z,577.00
2024-05-09T02:33:24.336Z,578.00
2024-05-09T02:34:24.129Z,579.00
2024-05-09T02:35:24.218Z,581.00
2024-05-09T02:36:24.101Z,582.00
2024-05-09T02:37:24.097Z,581.00
2024-05-09T02:38:24.151Z,581.00
2024-05-09T02:39:24.118Z,579.00
2024-05-09T02:41:24.286Z,576.00
2024-05-09T02:42:24.238Z,579.00
2024-05-09T02:43:24.324Z,577.00
2024-05-09T02:44:24.449Z,578.00
2024-05-09T02:45:24.420Z,578.00
2024-05-09T02:46:24.491Z,578.00
2024-05-09T02:47:24.690Z,578.00
2024-05-09T02:48:24.754Z,578.00
2024-05-09T02:49:24.779Z,580.00
2024-05-09T02:50:33.144Z,582.00
2024-05-09T02:51:25.724Z,581.00
2024-05-09T02:52:24.742Z,580.00
2024-05-09T02:53:24.771Z,582.00
2024-05-09T02:54:24.719Z,582.00
2024-05-09T02:55:24.770Z,580.00
2024-05-09T02:56:24.755Z,583.00
2024-05-09T02:57:24.739Z,582.00
2024-05-09T02:58:24.739Z,582.00
2024-05-09T02:59:24.799Z,582.00
2024-05-09T03:00:29.966Z,581.00
2024-05-09T03:01:25.890Z,578.00
2024-05-09T03:02:24.832Z,577.00
2024-05-09T03:03:25.065Z,573.00
2024-05-09T03:04:24.814Z,572.00
2024-05-09T03:05:24.806Z,570.00
2024-05-09T03:06:24.764Z,571.00
2024-05-09T03:07:24.791Z,570.00
2024-05-09T03:08:24.831Z,570.00
2024-05-09T03:09:24.766Z,570.00
2024-05-09T03:10:28.591Z,570.00
2024-05-09T03:11:25.053Z,569.00
2024-05-09T03:12:24.887Z,569.00
2024-05-09T03:13:24.833Z,570.00
2024-05-09T03:14:24.940Z,570.00
2024-05-09T03:15:24.808Z,572.00
2024-05-09T03:16:24.805Z,573.00
2024-05-09T03:17:25.047Z,572.00
2024-05-09T03:18:24.959Z,570.00
2024-05-09T03:19:24.875Z,568.00
2024-05-09T03:20:32.293Z,569.00
2024-05-09T03:21:25.815Z,571.00
2024-05-09T03:22:24.812Z,570.00
2024-05-09T03:23:24.871Z,569.00
2024-05-09T03:24:24.812Z,571.00
2024-05-09T03:25:24.857Z,570.00
2024-05-09T03:26:24.893Z,570.00
2024-05-09T03:27:24.836Z,574.00
2024-05-09T03:28:24.815Z,574.00
2024-05-09T03:29:25.027Z,574.00
2024-05-09T03:30:31.217Z,574.00
2024-05-09T03:31:25.901Z,576.00
2024-05-09T03:32:24.970Z,578.00
2024-05-09T03:33:25.121Z,577.00
2024-05-09T03:34:25.004Z,576.00
2024-05-09T03:35:25.068Z,579.00
2024-05-09T03:36:24.914Z,583.00
2024-05-09T03:37:24.952Z,579.00
2024-05-09T03:38:24.953Z,578.00
2024-05-09T03:39:24.902Z,580.00
2024-05-09T03:40:28.949Z,581.00
2024-05-09T03:41:26.181Z,579.00
2024-05-09T03:42:25.016Z,578.00
2024-05-09T03:43:24.973Z,576.00
2024-05-09T03:44:25.068Z,577.00
2024-05-09T03:45:24.980Z,576.00
2024-05-09T03:46:24.987Z,573.00
2024-05-09T03:47:25.080Z,573.00
2024-05-09T03:48:25.141Z,573.00
2024-05-09T03:49:25.173Z,576.00
2024-05-09T03:50:30.309Z,577.00
2024-05-09T03:51:26.045Z,578.00
2024-05-09T03:52:25.034Z,577.00
2024-05-09T03:53:25.313Z,576.00
2024-05-09T03:54:25.084Z,577.00
2024-05-09T03:55:25.057Z,577.00
2024-05-09T03:56:25.105Z,577.00
2024-05-09T03:57:25.085Z,577.00
2024-05-09T03:58:25.059Z,577.00
2024-05-09T03:59:25.235Z,579.00
2024-05-09T04:00:31.214Z,578.00
2024-05-09T04:01:26.169Z,574.00
2024-05-09T04:02:25.216Z,574.00
2024-05-09T04:03:25.341Z,573.00
2024-05-09T04:04:25.291Z,573.00
2024-05-09T04:05:25.144Z,574.00
2024-05-09T04:06:25.156Z,573.00
2024-05-09T04:07:25.114Z,573.00
2024-05-09T04:08:25.186Z,571.00
2024-05-09T04:09:25.161Z,572.00
2024-05-09T04:10:31.264Z,573.00
2024-05-09T04:11:26.350Z,574.00
2024-05-09T04:12:25.258Z,573.00
2024-05-09T04:13:25.231Z,575.00
2024-05-09T04:14:25.249Z,576.00
2024-05-09T04:15:25.225Z,573.00
2024-05-09T04:16:25.223Z,575.00
2024-05-09T04:17:25.323Z,573.00
2024-05-09T04:18:25.331Z,571.00
2024-05-09T04:19:25.314Z,569.00
2024-05-09T04:20:35.900Z,569.00
2024-05-09T04:21:26.327Z,569.00
2024-05-09T04:22:33.545Z,568.00
2024-05-09T04:23:33.696Z,563.00
2024-05-09T04:24:33.492Z,562.00
2024-05-09T04:25:33.532Z,564.00
2024-05-09T04:26:33.614Z,569.00
2024-05-09T04:27:33.541Z,574.00
2024-05-09T04:28:33.522Z,577.00
2024-05-09T04:29:33.545Z,574.00
2024-05-09T04:30:38.275Z,572.00
2024-05-09T04:31:45.609Z,562.00
2024-05-09T04:32:45.664Z,565.00
2024-05-09T04:33:45.645Z,566.00
2024-05-09T04:34:45.615Z,565.00
2024-05-09T04:35:45.735Z,564.00
2024-05-09T04:36:45.546Z,562.00
2024-05-09T04:37:45.615Z,563.00
2024-05-09T04:38:45.614Z,565.00
2024-05-09T04:39:45.609Z,564.00
2024-05-09T04:40:45.629Z,563.00
2024-05-09T04:41:45.604Z,562.00
2024-05-09T04:42:45.608Z,561.00
2024-05-09T04:43:45.624Z,562.00
2024-05-09T04:44:45.574Z,563.00
2024-05-09T04:45:45.614Z,564.00
2024-05-09T04:46:45.627Z,565.00
2024-05-09T04:47:45.693Z,563.00
2024-05-09T04:48:45.771Z,563.00
2024-05-09T04:49:45.666Z,561.00
2024-05-09T04:50:45.645Z,565.00
2024-05-09T04:51:45.594Z,565.00
2024-05-09T04:52:45.670Z,567.00
2024-05-09T04:53:45.627Z,569.00
2024-05-09T04:54:45.598Z,570.00
2024-05-09T04:55:45.711Z,569.00
2024-05-09T04:56:45.712Z,569.00
2024-05-09T04:57:45.754Z,572.00
2024-05-09T04:58:45.858Z,572.00
2024-05-09T04:59:45.900Z,569.00
2024-05-09T05:00:46.050Z,570.00
2024-05-09T05:01:46.216Z,572.00
2024-05-09T05:02:46.171Z,575.00
2024-05-09T05:03:46.383Z,575.00
2024-05-09T05:04:46.303Z,575.00
2024-05-09T05:05:46.656Z,576.00
2024-05-09T05:06:46.388Z,577.00
2024-05-09T05:07:46.451Z,575.00
2024-05-09T05:08:46.800Z,575.00
2024-05-09T05:09:46.545Z,577.00
2024-05-09T05:10:47.175Z,571.00
2024-05-09T05:11:46.751Z,573.00
2024-05-09T05:12:46.735Z,573.00
2024-05-09T05:13:46.849Z,572.00
2024-05-09T05:14:46.860Z,570.00
2024-05-09T05:15:46.974Z,569.00
2024-05-09T05:16:47.062Z,569.00
2024-05-09T05:17:47.252Z,568.00
2024-05-09T05:18:47.238Z,568.00
2024-05-09T05:19:47.343Z,566.00
2024-05-09T05:20:47.390Z,565.00
2024-05-09T05:21:47.339Z,566.00
2024-05-09T05:22:47.457Z,567.00
2024-05-09T05:23:47.506Z,571.00
2024-05-09T05:24:47.514Z,572.00
2024-05-09T05:25:47.699Z,574.00
2024-05-09T05:26:47.654Z,573.00
2024-05-09T05:27:47.849Z,574.00
2024-05-09T05:28:47.854Z,572.00
2024-05-09T05:29:47.892Z,571.00
2024-05-09T05:30:47.961Z,571.00
2024-05-09T05:31:48.027Z,569.00
2024-05-09T05:32:48.212Z,568.00
2024-05-09T05:33:48.217Z,566.00
2024-05-09T05:34:48.249Z,565.00
2024-05-09T05:35:48.337Z,565.00
2024-05-09T05:36:48.335Z,563.00
2024-05-09T05:37:48.397Z,562.00
2024-05-09T05:38:48.553Z,562.00
2024-05-09T05:39:48.522Z,562.00
2024-05-09T05:40:48.602Z,562.00
2024-05-09T05:41:48.598Z,564.00
2024-05-09T05:42:48.656Z,564.00
2024-05-09T05:43:48.809Z,566.00
2024-05-09T05:44:48.792Z,564.00
2024-05-09T05:45:48.833Z,566.00
2024-05-09T05:46:48.945Z,566.00
2024-05-09T05:47:49.072Z,570.00
2024-05-09T05:48:49.203Z,569.00
2024-05-09T05:49:49.015Z,570.00
2024-05-09T05:50:49.177Z,572.00
2024-05-09T05:51:49.074Z,570.00
2024-05-09T05:52:49.152Z,571.00
2024-05-09T05:53:49.219Z,572.00
2024-05-09T05:54:49.220Z,573.00
2024-05-09T05:55:49.317Z,576.00
2024-05-09T05:56:49.279Z,576.00
2024-05-09T05:57:49.341Z,574.00
2024-05-09T05:58:49.330Z,571.00
2024-05-09T05:59:49.334Z,568.00
2024-05-09T06:00:49.413Z,566.00
2024-05-09T06:01:49.418Z,566.00
2024-05-09T06:02:49.551Z,566.00
2024-05-09T06:03:49.601Z,566.00
2024-05-09T06:04:49.683Z,565.00
2024-05-09T06:05:49.699Z,566.00
2024-05-09T06:06:49.728Z,567.00
2024-05-09T06:07:49.891Z,565.00
2024-05-09T06:08:50.031Z,563.00
2024-05-09T06:09:50.518Z,562.00
2024-05-09T06:10:50.167Z,564.00
2024-05-09T06:11:50.163Z,566.00
2024-05-09T06:12:50.179Z,566.00
2024-05-09T06:13:50.246Z,563.00
2024-05-09T06:14:50.270Z,565.00
2024-05-09T06:15:50.353Z,560.00
2024-05-09T06:16:50.506Z,560.00
2024-05-09T06:17:50.585Z,560.00
2024-05-09T06:18:50.700Z,560.00
2024-05-09T06:19:50.694Z,562.00
2024-05-09T06:20:50.739Z,559.00
2024-05-09T06:21:50.719Z,557.00
2024-05-09T06:22:50.851Z,559.00
2024-05-09T06:23:50.867Z,558.00
2024-05-09T06:24:50.936Z,559.00
2024-05-09T06:25:51.139Z,561.00
2024-05-09T06:26:51.057Z,562.00
2024-05-09T06:27:51.142Z,565.00
2024-05-09T06:28:51.279Z,565.00
2024-05-09T06:29:51.250Z,566.00
2024-05-09T06:30:51.311Z,568.00
2024-05-09T06:31:51.434Z,567.00
2024-05-09T06:32:51.561Z,564.00
2024-05-09T06:33:51.668Z,566.00
2024-05-09T06:34:51.638Z,566.00
2024-05-09T06:35:51.743Z,561.00
2024-05-09T06:36:51.718Z,561.00
2024-05-09T06:38:51.839Z,561.00
2024-05-09T06:39:51.918Z,561.00
2024-05-09T06:40:52.104Z,560.00
2024-05-09T06:41:52.115Z,560.00
2024-05-09T06:42:52.145Z,561.00
2024-05-09T06:43:52.320Z,560.00
2024-05-09T06:44:52.250Z,563.00
2024-05-09T06:45:52.432Z,564.00
2024-05-09T06:46:52.582Z,562.00
2024-05-09T06:47:52.583Z,558.00
2024-05-09T06:48:53.035Z,554.00
2024-05-09T06:49:52.607Z,554.00
2024-05-09T06:50:52.663Z,553.00
2024-05-09T06:51:52.644Z,552.00
2024-05-09T06:52:52.695Z,555.00
2024-05-09T06:53:52.721Z,555.00
2024-05-09T06:54:52.786Z,554.00
2024-05-09T06:55:52.971Z,552.00
2024-05-09T06:56:52.889Z,552.00
2024-05-09T06:57:52.880Z,552.00
2024-05-09T06:58:52.910Z,553.00
2024-05-09T06:59:52.901Z,555.00
2024-05-09T07:00:52.993Z,554.00
2024-05-09T07:01:52.989Z,555.00
2024-05-09T07:02:53.099Z,557.00
2024-05-09T07:03:53.208Z,557.00
2024-05-09T07:04:53.381Z,554.00
2024-05-09T07:05:53.196Z,554.00
2024-05-09T07:06:53.183Z,555.00
2024-05-09T07:07:53.226Z,557.00
2024-05-09T07:08:53.262Z,557.00
2024-05-09T07:09:53.250Z,555.00
2024-05-09T07:10:53.465Z,558.00
2024-05-09T07:11:53.439Z,558.00
2024-05-09T07:12:53.405Z,557.00
2024-05-09T07:13:53.503Z,555.00
2024-05-09T07:14:53.500Z,554.00
2024-05-09T07:15:53.542Z,555.00
2024-05-09T07:16:53.682Z,554.00
2024-05-09T07:17:53.700Z,554.00
2024-05-09T07:18:53.787Z,553.00
2024-05-09T07:19:53.689Z,554.00
2024-05-09T07:20:53.733Z,556.00
2024-05-09T07:21:53.750Z,555.00
2024-05-09T07:22:53.808Z,555.00
2024-05-09T07:23:53.851Z,557.00
2024-05-09T07:24:53.888Z,558.00
2024-05-09T07:25:53.956Z,560.00
2024-05-09T07:26:54.094Z,560.00
2024-05-09T07:27:54.003Z,558.00
2024-05-09T07:28:54.062Z,554.00
2024-05-09T07:29:54.104Z,554.00
2024-05-09T07:30:54.117Z,552.00
2024-05-09T07:31:54.225Z,554.00
2024-05-09T07:32:54.340Z,553.00
2024-05-09T07:33:54.382Z,550.00
2024-05-09T07:34:54.356Z,550.00
2024-05-09T07:35:54.335Z,550.00
2024-05-09T07:36:54.385Z,554.00
2024-05-09T07:37:54.511Z,555.00
2024-05-09T07:38:54.464Z,557.00
2024-05-09T07:39:54.519Z,554.00
2024-05-09T07:40:54.561Z,554.00
2024-05-09T07:41:54.567Z,554.00
2024-05-09T07:42:54.597Z,555.00
2024-05-09T07:43:54.654Z,555.00
2024-05-09T07:44:55.598Z,554.00
2024-05-09T07:45:56.497Z,554.00
2024-05-09T07:48:13.899Z,553.00
2024-05-09T07:49:44.122Z,553.00
2024-05-09T07:50:34.896Z,554.00
2024-05-09T07:52:38.442Z,548.00
2024-05-09T07:53:21.801Z,546.00
2024-05-09T07:53:57.310Z,551.00
2024-05-09T07:54:55.864Z,552.00
2024-05-09T07:55:55.261Z,551.00
2024-05-09T07:56:55.210Z,551.00
2024-05-09T07:57:54.804Z,549.00
2024-05-09T07:58:54.823Z,547.00
2024-05-09T07:59:54.760Z,544.00
2024-05-09T08:00:54.909Z,545.00
2024-05-09T08:01:54.916Z,543.00
2024-05-09T08:02:54.798Z,545.00
2024-05-09T08:03:54.989Z,543.00
2024-05-09T08:04:54.851Z,545.00
2024-05-09T08:05:54.810Z,544.00
2024-05-09T08:06:54.848Z,544.00
2024-05-09T08:07:54.816Z,543.00
2024-05-09T08:08:54.796Z,544.00
2024-05-09T08:09:54.866Z,548.00
2024-05-09T08:10:54.867Z,550.00
2024-05-09T08:11:54.904Z,549.00
2024-05-09T08:12:54.906Z,551.00
2024-05-09T08:13:54.968Z,548.00
2024-05-09T08:14:54.950Z,546.00
2024-05-09T08:15:55.027Z,545.00
2024-05-09T08:16:55.057Z,544.00
2024-05-09T08:17:55.279Z,543.00
2024-05-09T08:18:55.154Z,543.00
2024-05-09T08:19:55.117Z,542.00
2024-05-09T08:20:55.121Z,543.00
2024-05-09T08:21:55.254Z,541.00
2024-05-09T08:22:55.192Z,541.00
2024-05-09T08:23:55.212Z,543.00
2024-05-09T08:24:55.300Z,543.00
2024-05-09T08:25:55.241Z,543.00
2024-05-09T08:26:55.255Z,545.00
2024-05-09T08:27:55.355Z,543.00
2024-05-09T08:28:55.289Z,542.00
2024-05-09T08:29:55.363Z,539.00
2024-05-09T08:30:55.469Z,539.00
2024-05-09T08:31:55.415Z,538.00
2024-05-09T08:32:55.500Z,539.00
2024-05-09T08:33:55.501Z,539.00
2024-05-09T08:34:55.575Z,536.00
2024-05-09T08:35:55.459Z,535.00
2024-05-09T08:36:56.302Z,533.00
2024-05-09T08:37:55.640Z,533.00
2024-05-09T08:38:55.531Z,533.00
2024-05-09T08:39:55.697Z,533.00
2024-05-09T08:40:55.657Z,535.00
2024-05-09T08:41:55.593Z,537.00
2024-05-09T08:42:55.685Z,539.00
2024-05-09T08:43:55.634Z,539.00
2024-05-09T08:44:55.699Z,540.00
2024-05-09T08:45:55.668Z,538.00
2024-05-09T08:46:55.697Z,537.00
2024-05-09T08:47:55.830Z,535.00
2024-05-09T08:48:55.881Z,534.00
2024-05-09T08:49:55.864Z,534.00
2024-05-09T08:50:55.824Z,531.00
2024-05-09T08:51:55.837Z,531.00
2024-05-09T08:52:55.795Z,532.00
2024-05-09T08:53:55.790Z,532.00
2024-05-09T08:54:55.887Z,530.00
2024-05-09T08:55:55.852Z,531.00
2024-05-09T08:56:55.852Z,532.00
2024-05-09T08:57:55.921Z,533.00
2024-05-09T08:58:55.909Z,533.00
2024-05-09T08:59:55.924Z,534.00
2024-05-09T09:00:56.021Z,536.00
2024-05-09T09:01:56.009Z,534.00
2024-05-09T09:02:56.023Z,533.00
2024-05-09T09:03:56.137Z,533.00
2024-05-09T09:04:56.029Z,535.00
2024-05-09T09:05:56.001Z,533.00
2024-05-09T09:06:58.219Z,531.00
2024-05-09T09:07:56.019Z,533.00
2024-05-09T09:08:56.027Z,532.00
2024-05-09T09:09:56.019Z,530.00
2024-05-09T09:10:56.029Z,528.00
2024-05-09T09:11:56.048Z,528.00
2024-05-09T09:12:56.272Z,529.00
2024-05-09T09:13:56.032Z,528.00
2024-05-09T09:14:56.034Z,530.00
2024-05-09T09:15:56.075Z,531.00
2024-05-09T09:16:56.036Z,528.00
2024-05-09T09:17:56.162Z,529.00
2024-05-09T09:18:56.115Z,526.00
2024-05-09T09:19:56.126Z,525.00
2024-05-09T09:20:56.036Z,524.00
2024-05-09T09:21:56.072Z,524.00
2024-05-09T09:22:56.058Z,523.00
2024-05-09T09:23:56.035Z,525.00
2024-05-09T09:24:56.127Z,527.00
2024-05-09T09:25:56.066Z,527.00
2024-05-09T09:26:56.037Z,527.00
2024-05-09T09:27:56.083Z,529.00
2024-05-09T09:28:56.047Z,527.00
2024-05-09T09:29:56.038Z,528.00
2024-05-09T09:30:56.131Z,526.00
2024-05-09T09:31:56.061Z,523.00
2024-05-09T09:32:56.124Z,522.00
2024-05-09T09:33:56.126Z,522.00
2024-05-09T09:34:56.134Z,520.00
2024-05-09T09:35:56.033Z,520.00
2024-05-09T09:36:56.098Z,521.00
2024-05-09T09:37:56.078Z,522.00
2024-05-09T09:38:56.080Z,522.00
2024-05-09T09:39:56.096Z,521.00
2024-05-09T09:40:56.184Z,520.00
2024-05-09T09:41:56.057Z,520.00
2024-05-09T09:42:56.122Z,521.00
2024-05-09T09:43:56.127Z,521.00
2024-05-09T09:45:04.223Z,520.00
2024-05-09T09:45:57.203Z,521.00
2024-05-09T09:46:56.119Z,523.00
2024-05-09T09:47:56.129Z,524.00
2024-05-09T09:48:56.171Z,523.00
2024-05-09T09:49:56.091Z,523.00
2024-05-09T09:50:56.095Z,523.00
2024-05-09T09:51:56.238Z,521.00
2024-05-09T09:52:56.082Z,521.00
2024-05-09T09:53:56.083Z,521.00
2024-05-09T09:54:56.152Z,521.00
2024-05-09T09:55:56.099Z,519.00
2024-05-09T09:56:56.098Z,520.00
2024-05-09T09:57:56.317Z,519.00
2024-05-09T09:58:56.120Z,518.00
2024-05-09T09:59:56.132Z,519.00
2024-05-09T10:00:56.362Z,521.00
2024-05-09T10:01:56.330Z,521.00
2024-05-09T10:02:56.235Z,522.00
2024-05-09T10:03:56.293Z,525.00
2024-05-09T10:04:56.279Z,524.00
2024-05-09T10:05:56.228Z,525.00
2024-05-09T10:06:56.314Z,524.00
2024-05-09T10:07:56.297Z,523.00
2024-05-09T10:08:56.346Z,527.00
2024-05-09T10:09:56.462Z,527.00
2024-05-09T10:10:56.515Z,529.00
2024-05-09T10:12:56.522Z,528.00
2024-05-09T10:13:56.505Z,526.00
2024-05-09T10:14:56.557Z,526.00
2024-05-09T10:15:56.754Z,525.00
2024-05-09T10:16:56.632Z,523.00
2024-05-09T10:17:56.815Z,523.00
2024-05-09T10:18:56.872Z,524.00
2024-05-09T10:19:56.856Z,526.00
2024-05-09T10:20:56.765Z,526.00
2024-05-09T10:21:56.894Z,523.00
2024-05-09T10:22:56.873Z,520.00
2024-05-09T10:23:56.940Z,519.00
2024-05-09T10:24:56.954Z,519.00
2024-05-09T10:25:56.990Z,518.00
2024-05-09T10:26:57.014Z,515.00
2024-05-09T10:27:57.103Z,514.00
2024-05-09T10:28:57.104Z,516.00
2024-05-09T10:29:57.226Z,515.00
2024-05-09T10:30:57.225Z,516.00
2024-05-09T10:31:57.217Z,518.00
2024-05-09T10:32:57.313Z,519.00
2024-05-09T10:33:57.440Z,515.00
2024-05-09T10:34:57.411Z,516.00
2024-05-09T10:35:57.370Z,517.00
2024-05-09T10:36:57.487Z,517.00
2024-05-09T10:37:57.472Z,517.00
2024-05-09T10:38:57.494Z,517.00
2024-05-09T10:39:57.570Z,517.00
2024-05-09T10:40:57.579Z,516.00
2024-05-09T10:41:57.613Z,516.00
2024-05-09T10:42:57.780Z,517.00
2024-05-09T10:43:57.714Z,519.00
2024-05-09T10:44:57.772Z,518.00
2024-05-09T10:45:57.844Z,519.00
2024-05-09T10:46:57.875Z,519.00
2024-05-09T10:47:57.954Z,520.00
2024-05-09T10:48:58.096Z,520.00
2024-05-09T10:49:58.020Z,520.00
2024-05-09T10:50:57.998Z,522.00
2024-05-09T10:51:58.158Z,520.00
2024-05-09T10:52:58.085Z,520.00
2024-05-09T10:53:58.164Z,522.00
2024-05-09T10:54:58.216Z,524.00
2024-05-09T10:55:58.217Z,525.00
2024-05-09T10:56:58.276Z,525.00
2024-05-09T10:57:58.409Z,525.00
2024-05-09T10:58:58.823Z,524.00
2024-05-09T10:59:58.437Z,523.00
2024-05-09T11:00:58.886Z,523.00
2024-05-09T11:01:58.580Z,524.00
2024-05-09T11:02:58.601Z,524.00
2024-05-09T11:03:58.796Z,523.00
2024-05-09T11:04:58.729Z,525.00
2024-05-09T11:05:58.760Z,524.00
2024-05-09T11:06:59.259Z,525.00
2024-05-09T11:07:58.812Z,524.00
2024-05-09T11:08:58.865Z,522.00
2024-05-09T11:09:58.947Z,520.00
2024-05-09T11:10:58.964Z,520.00
2024-05-09T11:11:59.024Z,520.00
2024-05-09T11:12:59.152Z,521.00
2024-05-09T11:13:59.096Z,521.00
2024-05-09T11:14:59.133Z,521.00
2024-05-09T11:15:59.306Z,522.00
2024-05-09T11:16:59.224Z,522.00
2024-05-09T11:17:59.329Z,521.00
2024-05-09T11:18:59.674Z,521.00
2024-05-09T11:19:59.431Z,520.00
2024-05-09T11:20:59.409Z,521.00
2024-05-09T11:21:59.487Z,520.00
2024-05-09T11:22:59.479Z,518.00
2024-05-09T11:23:59.635Z,516.00
2024-05-09T11:24:59.635Z,513.00
2024-05-09T11:25:59.659Z,515.00
2024-05-09T11:26:59.695Z,514.00
2024-05-09T11:27:59.775Z,517.00
2024-05-09T11:28:59.809Z,517.00
2024-05-09T11:29:59.834Z,516.00
2024-05-09T11:31:00.136Z,513.00
2024-05-09T11:31:59.966Z,511.00
2024-05-09T11:33:00.155Z,508.00
2024-05-09T11:34:00.128Z,506.00
2024-05-09T11:35:00.049Z,506.00
2024-05-09T11:36:00.091Z,506.00
2024-05-09T11:37:00.228Z,507.00
2024-05-09T11:38:00.260Z,509.00
2024-05-09T11:39:00.253Z,510.00
2024-05-09T11:40:00.416Z,512.00
2024-05-09T11:41:00.353Z,513.00
2024-05-09T11:42:00.419Z,514.00
2024-05-09T11:43:00.505Z,514.00
2024-05-09T11:44:00.486Z,512.00
2024-05-09T11:45:00.503Z,510.00
2024-05-09T11:46:00.718Z,508.00
2024-05-09T11:47:00.580Z,507.00
2024-05-09T11:48:00.770Z,508.00
2024-05-09T11:49:00.877Z,509.00
2024-05-09T11:50:00.774Z,511.00
2024-05-09T11:51:00.773Z,510.00
2024-05-09T11:52:00.915Z,509.00
2024-05-09T11:53:00.873Z,508.00
2024-05-09T11:54:00.909Z,508.00
2024-05-09T11:55:01.013Z,508.00
2024-05-09T11:56:00.986Z,509.00
2024-05-09T11:57:01.030Z,511.00
2024-05-09T11:58:01.127Z,511.00
2024-05-09T11:59:01.114Z,508.00
2024-05-09T12:00:01.154Z,507.00
2024-05-09T12:01:01.298Z,506.00
2024-05-09T12:02:01.413Z,507.00
2024-05-09T12:03:01.314Z,507.00
2024-05-09T12:04:01.789Z,504.00
2024-05-09T12:05:01.452Z,503.00
2024-05-09T12:06:01.509Z,505.00
2024-05-09T12:07:01.497Z,505.00
2024-05-09T12:08:01.519Z,507.00
2024-05-09T12:09:01.523Z,506.00
2024-05-09T12:10:01.623Z,505.00
2024-05-09T12:11:01.787Z,506.00
2024-05-09T12:12:01.633Z,507.00
2024-05-09T12:13:01.799Z,504.00
2024-05-09T12:14:01.750Z,504.00
2024-05-09T12:15:01.758Z,505.00
2024-05-09T12:16:01.953Z,502.00
2024-05-09T12:17:01.879Z,503.00
2024-05-09T12:18:03.894Z,502.00
2024-05-09T12:19:02.137Z,500.00
2024-05-09T12:20:02.046Z,500.00
2024-05-09T12:21:02.088Z,500.00
2024-05-09T12:22:02.186Z,501.00
2024-05-09T12:23:02.179Z,500.00
2024-05-09T12:24:02.219Z,499.00
2024-05-09T12:25:02.291Z,500.00
2024-05-09T12:26:02.292Z,499.00
2024-05-09T12:27:02.323Z,497.00
2024-05-09T12:28:02.434Z,495.00
2024-05-09T12:29:02.444Z,496.00
2024-05-09T12:30:02.545Z,495.00
2024-05-09T12:31:02.545Z,497.00
2024-05-09T12:32:02.624Z,496.00
2024-05-09T12:33:02.676Z,497.00
2024-05-09T12:34:02.711Z,496.00
2024-05-09T12:35:02.689Z,498.00
2024-05-09T12:36:02.699Z,497.00
2024-05-09T12:37:02.827Z,499.00
2024-05-09T12:38:02.828Z,498.00
2024-05-09T12:39:02.856Z,499.00
2024-05-09T12:40:03.785Z,500.00